createdAt,value
2023-04-16T00:00:22.561Z,95585.88
2023-04-16T00:02:50.755Z,95586.94
2023-04-16T00:05:19.455Z,95589.34
2023-04-16T00:07:47.510Z,95594.66
2023-04-16T00:10:16.110Z,95595.47
2023-04-16T00:12:45.671Z,95596.28
2023-04-16T00:15:13.740Z,95596.28
2023-04-16T00:17:41.881Z,95591.75
2023-04-16T00:20:11.528Z,95600.53
2023-04-16T00:22:39.593Z,95596.00
2023-04-16T00:25:08.039Z,95603.97
2023-04-16T00:27:36.321Z,95607.19
2023-04-16T00:30:06.841Z,95606.13
2023-04-16T00:32:35.415Z,95600.03
2023-04-16T00:35:03.515Z,95599.78
2023-04-16T00:37:31.776Z,95594.47
2023-04-16T00:39:59.829Z,95607.50
2023-04-16T00:42:27.882Z,95600.56
2023-04-16T00:44:56.520Z,95604.03
2023-04-16T00:47:28.145Z,95597.13
2023-04-16T00:49:56.259Z,95596.31
2023-04-16T00:52:24.320Z,95598.16
2023-04-16T00:54:53.130Z,95598.41
2023-04-16T00:57:24.013Z,95591.47
2023-04-16T00:59:52.792Z,95599.47
2023-04-16T01:02:20.974Z,95596.78
2023-04-16T01:04:53.033Z,95600.53
2023-04-16T01:07:21.124Z,95593.09
2023-04-16T01:09:49.201Z,95598.66
2023-04-16T01:12:17.576Z,95594.41
2023-04-16T01:14:45.622Z,95598.94
2023-04-16T01:17:13.674Z,95599.97
2023-04-16T01:19:41.719Z,95597.31
2023-04-16T01:22:11.263Z,95599.97
2023-04-16T01:24:39.631Z,95603.44
2023-04-16T01:27:12.006Z,95600.78
2023-04-16T01:29:40.084Z,95602.63
2023-04-16T01:32:08.664Z,95603.69
2023-04-16T01:34:42.050Z,95614.31
2023-04-16T01:37:13.340Z,95616.97
2023-04-16T01:39:41.444Z,95623.34
2023-04-16T01:42:10.015Z,95618.03
2023-04-16T01:44:38.092Z,95620.69
2023-04-16T01:47:06.173Z,95624.13
2023-04-16T01:49:34.645Z,95623.34
2023-04-16T01:52:02.702Z,95622.28
2023-04-16T01:54:32.980Z,95626.78
2023-04-16T01:57:01.798Z,95622.28
2023-04-16T01:59:29.903Z,95624.94
2023-04-16T02:01:58.043Z,95625.75
2023-04-16T02:04:26.235Z,95634.28
2023-04-16T02:06:54.370Z,95622.84
2023-04-16T02:09:23.000Z,95630.53
2023-04-16T02:11:52.503Z,95625.22
2023-04-16T02:14:22.038Z,95631.09
2023-04-16T02:16:50.214Z,95628.69
2023-04-16T02:19:32.857Z,95634.00
2023-04-16T02:22:01.742Z,95628.69
2023-04-16T02:24:30.033Z,95625.00
2023-04-16T02:27:01.826Z,95628.44
2023-04-16T02:29:29.856Z,95631.09
2023-04-16T02:32:05.584Z,95630.06
2023-04-16T02:34:35.805Z,95634.56
2023-04-16T02:37:04.592Z,95637.22
2023-04-16T02:39:32.811Z,95647.88
2023-04-16T02:42:02.888Z,95640.69
2023-04-16T02:44:31.030Z,95649.47
2023-04-16T02:46:59.167Z,95643.34
2023-04-16T02:49:27.237Z,95644.97
2023-04-16T02:51:55.714Z,95640.69
2023-04-16T02:54:23.786Z,95641.75
2023-04-16T02:56:51.882Z,95650.53
2023-04-16T02:59:21.331Z,95651.56
2023-04-16T03:01:49.570Z,95654.22
2023-04-16T03:04:18.158Z,95649.16
2023-04-16T03:06:46.332Z,95655.03
2023-04-16T03:09:15.029Z,95650.75
2023-04-16T03:11:43.084Z,95649.16
2023-04-16T03:14:11.871Z,95650.22
2023-04-16T03:16:41.516Z,95656.06
2023-04-16T03:19:10.216Z,95657.13
2023-04-16T03:21:38.520Z,95654.47
2023-04-16T03:24:06.613Z,95655.56
2023-04-16T03:26:34.687Z,95665.09
2023-04-16T03:29:03.232Z,95675.72
2023-04-16T03:31:33.247Z,95670.41
2023-04-16T03:34:03.422Z,95669.66
2023-04-16T03:36:32.652Z,95677.63
2023-04-16T03:39:01.041Z,95677.63
2023-04-16T03:41:30.024Z,95681.31
2023-04-16T03:43:59.533Z,95674.16
2023-04-16T03:46:27.635Z,95680.28
2023-04-16T03:48:56.046Z,95680.53
2023-04-16T03:51:26.557Z,95687.69
2023-04-16T03:53:54.839Z,95687.69
2023-04-16T03:56:23.310Z,95693.00
2023-04-16T03:58:53.847Z,95690.59
2023-04-16T04:01:22.020Z,95695.09
2023-04-16T04:03:50.567Z,95694.28
2023-04-16T04:06:18.777Z,95704.91
2023-04-16T04:08:48.182Z,95700.66
2023-04-16T04:11:16.911Z,95704.34
2023-04-16T04:13:45.801Z,95705.16
2023-04-16T04:16:14.743Z,95709.91
2023-04-16T04:18:44.752Z,95713.63
2023-04-16T04:21:12.992Z,95707.53
2023-04-16T04:23:41.654Z,95710.97
2023-04-16T04:26:12.691Z,95713.63
2023-04-16T04:28:41.825Z,95714.69
2023-04-16T04:31:09.931Z,95719.22
2023-04-16T04:33:38.042Z,95714.69
2023-04-16T04:36:06.566Z,95721.88
2023-04-16T04:38:36.343Z,95725.31
2023-04-16T04:41:05.758Z,95724.53
2023-04-16T04:43:38.609Z,95722.66
2023-04-16T04:46:07.810Z,95734.88
2023-04-16T04:48:36.003Z,95734.63
2023-04-16T04:51:05.422Z,95730.94
2023-04-16T04:53:34.928Z,95735.22
2023-04-16T04:56:12.236Z,95740.28
2023-04-16T04:58:42.864Z,95737.38
2023-04-16T05:01:11.285Z,95735.53
2023-04-16T05:03:39.494Z,95737.94
2023-04-16T05:06:08.355Z,95736.88
2023-04-16T05:08:36.475Z,95736.63
2023-04-16T05:11:04.593Z,95743.06
2023-04-16T05:13:32.610Z,95751.63
2023-04-16T05:16:02.523Z,95751.44
2023-04-16T05:18:31.171Z,95755.81
2023-04-16T05:20:59.219Z,95752.31
2023-04-16T05:23:27.255Z,95752.69
2023-04-16T05:25:55.402Z,95755.84
2023-04-16T05:28:23.495Z,95750.03
2023-04-16T05:30:52.029Z,95746.75
2023-04-16T05:33:21.948Z,95759.63
2023-04-16T05:35:50.125Z,95761.91
2023-04-16T05:38:18.202Z,95760.59
2023-04-16T05:40:46.238Z,95769.06
2023-04-16T05:43:14.284Z,95767.53
2023-04-16T05:45:42.313Z,95774.16
2023-04-16T05:48:10.934Z,95773.88
2023-04-16T05:50:40.416Z,95780.66
2023-04-16T05:53:09.582Z,95779.91
2023-04-16T05:55:37.795Z,95780.63
2023-04-16T05:58:05.886Z,95785.03
2023-04-16T06:00:34.354Z,95790.50
2023-04-16T06:03:02.646Z,95791.75
2023-04-16T06:05:31.062Z,95795.94
2023-04-16T06:08:00.669Z,95796.75
2023-04-16T06:10:28.809Z,95803.94
2023-04-16T06:12:57.280Z,95802.28
2023-04-16T06:15:25.354Z,95800.41
2023-04-16T06:17:53.473Z,95806.78
2023-04-16T06:20:21.563Z,95804.94
2023-04-16T06:22:49.591Z,95809.78
2023-04-16T06:25:19.267Z,95814.34
2023-04-16T06:27:47.672Z,95811.91
2023-04-16T06:30:16.128Z,95822.84
2023-04-16T06:32:44.376Z,95822.03
2023-04-16T06:35:12.547Z,95820.16
2023-04-16T06:37:40.660Z,95824.44
2023-04-16T06:40:10.285Z,95823.88
2023-04-16T06:42:39.773Z,95833.19
2023-04-16T06:45:09.502Z,95825.88
2023-04-16T06:47:37.587Z,95825.63
2023-04-16T06:50:06.338Z,95830.41
2023-04-16T06:52:34.416Z,95833.41
2023-04-16T06:55:02.922Z,95826.22
2023-04-16T06:57:30.992Z,95832.63
2023-04-16T07:00:00.462Z,95834.56
2023-04-16T07:02:28.601Z,95829.25
2023-04-16T07:04:56.831Z,95828.75
2023-04-16T07:07:25.437Z,95826.13
2023-04-16T07:09:53.476Z,95828.81
2023-04-16T07:12:22.782Z,95830.91
2023-04-16T07:14:51.083Z,95834.19
2023-04-16T07:17:20.534Z,95831.38
2023-04-16T07:19:49.054Z,95838.41
2023-04-16T07:22:17.154Z,95840.81
2023-04-16T07:24:45.466Z,95845.19
2023-04-16T07:27:13.519Z,95846.34
2023-04-16T07:29:41.577Z,95847.16
2023-04-16T07:32:09.779Z,95859.97
2023-04-16T07:34:39.687Z,95855.72
2023-04-16T07:37:07.754Z,95863.69
2023-04-16T07:39:35.841Z,95868.56
2023-04-16T07:42:03.888Z,95861.72
2023-04-16T07:44:31.963Z,95872.97
2023-04-16T07:47:00.074Z,95867.44
2023-04-16T07:49:28.582Z,95878.97
2023-04-16T07:51:58.009Z,95878.19
2023-04-16T07:54:27.804Z,95882.81
2023-04-16T07:56:57.103Z,95879.34
2023-04-16T07:59:25.365Z,95878.34
2023-04-16T08:01:54.449Z,95886.09
2023-04-16T08:04:25.398Z,95883.94
2023-04-16T08:06:53.916Z,95890.91
2023-04-16T08:09:23.892Z,95885.81
2023-04-16T08:11:52.336Z,95884.56
2023-04-16T08:14:20.507Z,95894.75
2023-04-16T08:16:49.036Z,95891.09
2023-04-16T08:19:17.102Z,95891.69
2023-04-16T08:21:45.203Z,95895.19
2023-04-16T08:24:13.273Z,95899.97
2023-04-16T08:26:42.765Z,95906.63
2023-04-16T08:29:11.091Z,95901.03
2023-04-16T08:31:39.831Z,95904.91
2023-04-16T08:34:07.892Z,95905.19
2023-04-16T08:36:35.962Z,95909.47
2023-04-16T08:39:04.059Z,95907.16
2023-04-16T08:41:33.486Z,95907.47
2023-04-16T08:44:05.139Z,95910.41
2023-04-16T08:46:33.288Z,95908.03
2023-04-16T08:49:01.380Z,95913.97
2023-04-16T08:51:30.027Z,95919.56
2023-04-16T08:54:01.095Z,95920.38
2023-04-16T08:56:29.183Z,95924.66
2023-04-16T08:58:58.482Z,95932.66
2023-04-16T09:01:27.995Z,95932.91
2023-04-16T09:03:56.292Z,95938.00
2023-04-16T09:06:24.467Z,95934.81
2023-04-16T09:08:52.545Z,95937.00
2023-04-16T09:11:20.649Z,95935.34
2023-04-16T09:13:49.134Z,95939.88
2023-04-16T09:16:17.318Z,95942.84
2023-04-16T09:18:47.920Z,95951.94
2023-04-16T09:21:16.039Z,95954.91
2023-04-16T09:23:44.096Z,95948.19
2023-04-16T09:26:12.168Z,95948.19
2023-04-16T09:28:40.899Z,95959.13
2023-04-16T09:31:10.705Z,95953.78
2023-04-16T09:33:38.819Z,95959.72
2023-04-16T09:36:08.638Z,95969.31
2023-04-16T09:38:49.777Z,95962.94
2023-04-16T09:41:17.913Z,95960.31
2023-04-16T09:43:56.774Z,95954.22
2023-04-16T09:46:25.631Z,95963.56
2023-04-16T09:48:53.751Z,95962.00
2023-04-16T09:51:23.213Z,95965.22
2023-04-16T09:53:53.144Z,95971.13
2023-04-16T09:56:21.340Z,95968.72
2023-04-16T09:58:49.533Z,95970.59
2023-04-16T10:01:19.307Z,95977.84
2023-04-16T10:03:50.727Z,95982.13
2023-04-16T10:06:19.713Z,95984.00
2023-04-16T10:08:50.419Z,95985.06
2023-04-16T10:11:18.833Z,95986.09
2023-04-16T10:13:47.112Z,95989.06
2023-04-16T10:16:15.225Z,95985.28
2023-04-16T10:18:44.335Z,95990.13
2023-04-16T10:21:12.863Z,95994.41
2023-04-16T10:23:41.202Z,95990.44
2023-04-16T10:26:10.738Z,95998.72
2023-04-16T10:28:38.906Z,95993.66
2023-04-16T10:31:08.784Z,95999.03
2023-04-16T10:33:37.924Z,95999.56
2023-04-16T10:36:10.626Z,95998.22
2023-04-16T10:38:42.012Z,96001.97
2023-04-16T10:41:11.496Z,96003.31
2023-04-16T10:43:44.054Z,95998.47
2023-04-16T10:46:21.976Z,95999.00
2023-04-16T10:48:50.963Z,95990.19
2023-04-16T10:51:27.860Z,96001.41
2023-04-16T10:53:56.706Z,95996.81
2023-04-16T10:56:26.355Z,95999.78
2023-04-16T10:58:55.293Z,96000.56
2023-04-16T11:01:31.512Z,96007.53
2023-04-16T11:04:01.818Z,96003.47
2023-04-16T11:06:32.056Z,96000.63
2023-04-16T11:09:00.338Z,96008.03
2023-04-16T11:11:29.873Z,96008.91
2023-04-16T11:13:58.189Z,96006.50
2023-04-16T11:16:29.423Z,96008.69
2023-04-16T11:18:57.673Z,96011.53
2023-04-16T11:21:26.744Z,96006.44
2023-04-16T11:23:55.024Z,96010.47
2023-04-16T11:26:26.846Z,96005.16
2023-04-16T11:28:57.380Z,96006.84
2023-04-16T11:31:27.248Z,96009.53
2023-04-16T11:33:57.627Z,96017.31
2023-04-16T11:36:27.813Z,96022.69
2023-04-16T11:39:02.750Z,96015.22
2023-04-16T11:41:30.839Z,96023.56
2023-04-16T11:44:00.628Z,96020.91
2023-04-16T11:46:39.368Z,96019.59
2023-04-16T11:49:07.489Z,96029.25
2023-04-16T11:51:41.727Z,96024.72
2023-04-16T11:54:12.104Z,96034.34
2023-04-16T11:56:41.125Z,96027.94
2023-04-16T11:59:14.427Z,96028.72
2023-04-16T12:01:45.535Z,96024.69
2023-04-16T12:04:15.071Z,96026.81
2023-04-16T12:06:48.276Z,96033.81
2023-04-16T12:09:25.550Z,96032.94
2023-04-16T12:11:53.621Z,96030.53
2023-04-16T12:14:23.948Z,96023.22
2023-04-16T12:16:52.093Z,96040.91
2023-04-16T12:19:20.252Z,96039.03
2023-04-16T12:21:49.271Z,96041.75
2023-04-16T12:24:20.711Z,96048.97
2023-04-16T12:26:49.394Z,96037.41
2023-04-16T12:29:18.574Z,96050.31
2023-04-16T12:31:48.248Z,96049.06
2023-04-16T12:34:17.133Z,96043.19
2023-04-16T12:36:45.266Z,96045.59
2023-04-16T12:39:13.840Z,96048.19
2023-04-16T12:41:43.093Z,96052.72
2023-04-16T12:44:12.993Z,96053.50
2023-04-16T12:46:41.789Z,96047.03
2023-04-16T12:49:11.973Z,96049.72
2023-04-16T12:51:41.005Z,96048.94
2023-04-16T12:54:09.501Z,96047.59
2023-04-16T12:56:37.599Z,96050.22
2023-04-16T12:59:05.674Z,96051.06
2023-04-16T13:01:36.206Z,96052.19
2023-04-16T13:04:04.617Z,96056.22
2023-04-16T13:06:36.791Z,96046.88
2023-04-16T13:09:05.345Z,96061.59
2023-04-16T13:11:33.583Z,96059.13
2023-04-16T13:14:01.672Z,96056.97
2023-04-16T13:16:29.784Z,96062.88
2023-04-16T13:18:58.523Z,96054.56
2023-04-16T13:21:27.262Z,96053.72
2023-04-16T13:23:56.833Z,96059.09
2023-04-16T13:26:24.924Z,96057.47
2023-04-16T13:28:53.060Z,96073.81
2023-04-16T13:31:22.207Z,96066.13
2023-04-16T13:33:51.511Z,96062.41
2023-04-16T13:36:19.577Z,96066.72
2023-04-16T13:38:47.693Z,96067.78
2023-04-16T13:41:17.171Z,96058.44
2023-04-16T13:43:45.219Z,96057.34
2023-04-16T13:46:13.815Z,96065.44
2023-04-16T13:48:41.987Z,96060.63
2023-04-16T13:51:10.106Z,96067.03
2023-04-16T13:53:38.209Z,96061.16
2023-04-16T13:56:07.199Z,96063.03
2023-04-16T13:58:36.611Z,96067.84
2023-04-16T14:01:05.164Z,96065.41
2023-04-16T14:03:36.096Z,96070.75
2023-04-16T14:06:05.076Z,96065.09
2023-04-16T14:08:33.337Z,96075.03
2023-04-16T14:11:02.188Z,96069.06
2023-04-16T14:13:30.552Z,96064.56
2023-04-16T14:16:00.028Z,96073.97
2023-04-16T14:18:28.117Z,96075.56
2023-04-16T14:20:56.215Z,96074.22
2023-04-16T14:23:24.292Z,96071.03
2023-04-16T14:25:53.112Z,96079.13
2023-04-16T14:28:21.392Z,96077.25
2023-04-16T14:30:49.588Z,96078.03
2023-04-16T14:33:19.037Z,96082.59
2023-04-16T14:35:47.142Z,96070.53
2023-04-16T14:38:15.627Z,96075.91
2023-04-16T14:40:43.709Z,96079.69
2023-04-16T14:43:11.761Z,96073.22
2023-04-16T14:45:39.880Z,96075.38
2023-04-16T14:48:08.174Z,96081.81
2023-04-16T14:50:38.972Z,96079.63
2023-04-16T14:53:07.486Z,96083.38
2023-04-16T14:55:35.744Z,96084.16
2023-04-16T14:58:04.128Z,96090.88
2023-04-16T15:00:32.214Z,96092.47
2023-04-16T15:03:00.457Z,96095.41
2023-04-16T15:05:30.487Z,96090.03
2023-04-16T15:08:04.063Z,96094.28
2023-04-16T15:10:33.491Z,96093.16
2023-04-16T15:13:02.963Z,96100.13
2023-04-16T15:15:31.280Z,96094.75
2023-04-16T15:18:00.435Z,96101.34
2023-04-16T15:20:28.670Z,96106.66
2023-04-16T15:22:56.863Z,96101.47
2023-04-16T15:25:26.630Z,96105.44
2023-04-16T15:27:54.748Z,96113.66
2023-04-16T15:30:22.868Z,96110.94
2023-04-16T15:32:51.458Z,96115.13
2023-04-16T15:35:19.737Z,96121.78
2023-04-16T15:37:48.240Z,96120.56
2023-04-16T15:40:19.038Z,96115.97
2023-04-16T15:42:51.960Z,96122.03
2023-04-16T15:45:22.954Z,96129.50
2023-04-16T15:47:51.491Z,96122.19
2023-04-16T15:50:19.997Z,96123.81
2023-04-16T15:52:48.262Z,96126.41
2023-04-16T15:55:16.539Z,96120.81
2023-04-16T15:57:44.605Z,96134.88
2023-04-16T16:00:17.267Z,96128.94
2023-04-16T16:02:46.494Z,96138.22
2023-04-16T16:05:15.143Z,96136.28
2023-04-16T16:07:43.387Z,96137.09
2023-04-16T16:10:13.191Z,96137.34
2023-04-16T16:12:41.678Z,96140.56
2023-04-16T16:15:11.263Z,96136.59
2023-04-16T16:17:41.583Z,96141.88
2023-04-16T16:20:10.935Z,96133.75
2023-04-16T16:22:40.232Z,96138.81
2023-04-16T16:25:10.162Z,96143.00
2023-04-16T16:27:38.662Z,96146.16
2023-04-16T16:30:08.176Z,96143.78
2023-04-16T16:32:36.627Z,96146.38
2023-04-16T16:35:07.127Z,96152.47
2023-04-16T16:37:35.274Z,96152.13
2023-04-16T16:40:03.731Z,96157.91
2023-04-16T16:42:31.906Z,96155.16
2023-04-16T16:45:00.024Z,96154.13
2023-04-16T16:47:28.167Z,96162.88
2023-04-16T16:49:56.312Z,96159.63
2023-04-16T16:52:26.107Z,96163.69
2023-04-16T16:54:54.691Z,96171.91
2023-04-16T16:57:23.888Z,96163.56
2023-04-16T16:59:52.007Z,96165.22
2023-04-16T17:02:20.174Z,96170.53
2023-04-16T17:04:48.280Z,96165.13
2023-04-16T17:07:16.327Z,96168.03
2023-04-16T17:09:46.382Z,96166.72
2023-04-16T17:12:14.526Z,96170.38
2023-04-16T17:14:42.597Z,96167.38
2023-04-16T17:17:10.641Z,96177.75
2023-04-16T17:19:39.392Z,96174.50
2023-04-16T17:22:07.499Z,96177.41
2023-04-16T17:24:35.594Z,96179.28
2023-04-16T17:27:05.223Z,96182.69
2023-04-16T17:29:33.268Z,96180.69
2023-04-16T17:32:01.555Z,96192.38
2023-04-16T17:34:29.829Z,96182.03
2023-04-16T17:36:58.297Z,96192.38
2023-04-16T17:39:26.414Z,96188.81
2023-04-16T17:41:58.421Z,96193.91
2023-04-16T17:44:28.101Z,96190.94
2023-04-16T17:46:56.209Z,96191.75
2023-04-16T17:49:24.826Z,96195.94
2023-04-16T17:51:53.755Z,96190.28
2023-04-16T17:54:21.875Z,96197.22
2023-04-16T17:56:49.929Z,96199.41
2023-04-16T17:59:18.036Z,96199.66
2023-04-16T18:01:49.535Z,96205.44
2023-04-16T18:04:18.113Z,96208.38
2023-04-16T18:06:46.628Z,96210.72
2023-04-16T18:09:15.510Z,96210.47
2023-04-16T18:11:43.538Z,96218.47
2023-04-16T18:14:13.829Z,96220.06
2023-04-16T18:16:42.319Z,96219.28
2023-04-16T18:19:11.818Z,96224.25
2023-04-16T18:21:39.955Z,96228.19
2023-04-16T18:24:08.577Z,96225.53
2023-04-16T18:26:36.852Z,96227.16
2023-04-16T18:29:06.049Z,96230.41
2023-04-16T18:31:34.218Z,96243.94
2023-04-16T18:34:02.319Z,96241.53
2023-04-16T18:36:32.721Z,96243.38
2023-04-16T18:39:02.176Z,96239.91
2023-04-16T18:41:31.003Z,96249.19
2023-04-16T18:43:59.738Z,96246.44
2023-04-16T18:46:27.928Z,96254.94
2023-04-16T18:48:56.164Z,96258.88
2023-04-16T18:51:24.349Z,96252.50
2023-04-16T18:53:53.793Z,96246.59
2023-04-16T18:56:22.312Z,96257.00
2023-04-16T18:58:50.474Z,96258.06
2023-04-16T19:01:18.653Z,96255.16
2023-04-16T19:03:47.470Z,96256.78
2023-04-16T19:06:15.644Z,96254.13
2023-04-16T19:08:43.754Z,96256.84
2023-04-16T19:11:13.822Z,96258.13
2023-04-16T19:13:41.892Z,96257.81
2023-04-16T19:16:11.724Z,96262.56
2023-04-16T19:18:39.962Z,96263.16
2023-04-16T19:21:10.033Z,96257.31
2023-04-16T19:23:38.437Z,96266.63
2023-04-16T19:26:06.676Z,96260.78
2023-04-16T19:28:36.229Z,96262.66
2023-04-16T19:31:04.288Z,96266.94
2023-04-16T19:33:32.502Z,96268.47
2023-04-16T19:36:01.846Z,96271.38
2023-04-16T19:38:31.853Z,96269.53
2023-04-16T19:40:59.934Z,96270.16
2023-04-16T19:43:30.701Z,96278.38
2023-04-16T19:46:02.172Z,96282.06
2023-04-16T19:48:30.471Z,96273.03
2023-04-16T19:51:02.760Z,96270.63
2023-04-16T19:53:30.947Z,96276.50
2023-04-16T19:55:58.992Z,96273.03
2023-04-16T19:58:27.127Z,96274.66
2023-04-16T20:00:55.729Z,96281.25
2023-04-16T20:03:25.363Z,96273.28
2023-04-16T20:05:53.795Z,96279.19
2023-04-16T20:08:21.925Z,96278.72
2023-04-16T20:10:50.056Z,96281.38
2023-04-16T20:13:18.868Z,96289.09
2023-04-16T20:15:47.256Z,96279.25
2023-04-16T20:18:15.408Z,96278.13
2023-04-16T20:20:44.864Z,96275.25
2023-04-16T20:23:12.996Z,96284.03
2023-04-16T20:25:42.618Z,96278.44
2023-04-16T20:28:10.756Z,96283.78
2023-04-16T20:30:39.788Z,96273.69
2023-04-16T20:33:09.674Z,96279.25
2023-04-16T20:35:37.793Z,96273.13
2023-04-16T20:38:07.269Z,96277.41
2023-04-16T20:40:38.108Z,96274.50
2023-04-16T20:43:10.384Z,96283.31
2023-04-16T20:45:40.969Z,96279.03
2023-04-16T20:48:09.816Z,96283.53
2023-04-16T20:50:38.002Z,96284.09
2023-04-16T20:53:07.469Z,96276.94
2023-04-16T20:55:35.557Z,96283.88
2023-04-16T20:58:03.620Z,96278.22
2023-04-16T21:00:31.758Z,96276.94
2023-04-16T21:03:00.274Z,96276.69
2023-04-16T21:05:30.039Z,96273.81
2023-04-16T21:07:58.079Z,96269.53
2023-04-16T21:10:27.605Z,96276.69
2023-04-16T21:12:55.687Z,96276.94
2023-04-16T21:15:24.242Z,96277.28
2023-04-16T21:17:52.334Z,96270.91
2023-04-16T21:20:20.496Z,96272.50
2023-04-16T21:22:48.604Z,96271.22
2023-04-16T21:25:16.944Z,96273.88
2023-04-16T21:27:46.764Z,96274.97
2023-04-16T21:30:15.883Z,96270.19
2023-04-16T21:32:43.968Z,96278.19
2023-04-16T21:35:12.213Z,96273.97
2023-04-16T21:37:40.285Z,96275.97
2023-04-16T21:40:09.396Z,96274.91
2023-04-16T21:42:39.751Z,96272.25
2023-04-16T21:45:10.296Z,96267.16
2023-04-16T21:47:38.606Z,96272.25
2023-04-16T21:50:07.500Z,96278.41
2023-04-16T21:52:40.185Z,96272.84
2023-04-16T21:55:10.299Z,96274.91
2023-04-16T21:57:38.361Z,96270.41
2023-04-16T22:00:12.295Z,96268.31
2023-04-16T22:02:42.929Z,96270.75
2023-04-16T22:05:11.408Z,96268.09
2023-04-16T22:07:39.434Z,96272.38
2023-04-16T22:10:09.750Z,96264.59
2023-04-16T22:12:39.924Z,96270.97
2023-04-16T22:15:10.320Z,96271.78
2023-04-16T22:17:38.748Z,96260.31
2023-04-16T22:20:11.549Z,96276.22
2023-04-16T22:22:39.937Z,96269.53
2023-04-16T22:25:08.587Z,96274.63
2023-04-16T22:27:36.633Z,96268.94
2023-04-16T22:30:05.081Z,96277.16
2023-04-16T22:32:33.206Z,96273.47
2023-04-16T22:35:01.476Z,96279.03
2023-04-16T22:37:31.348Z,96279.81
2023-04-16T22:39:59.346Z,96273.03
2023-04-16T22:42:27.430Z,96271.53
2023-04-16T22:44:55.430Z,96281.91
2023-04-16T22:47:23.581Z,96279.75
2023-04-16T22:49:51.963Z,96280.78
2023-04-16T22:52:20.002Z,96271.41
2023-04-16T22:54:49.423Z,96272.22
2023-04-16T22:57:21.080Z,96286.06
2023-04-16T22:59:49.298Z,96276.13
2023-04-16T23:02:17.471Z,96281.44
2023-04-16T23:04:46.500Z,96270.00
2023-04-16T23:07:14.649Z,96274.28
2023-04-16T23:09:42.644Z,96279.38
2023-04-16T23:12:12.090Z,96281.44
2023-04-16T23:14:44.683Z,96281.44
2023-04-16T23:17:13.853Z,96280.41
2023-04-16T23:19:41.965Z,96279.13
2023-04-16T23:22:10.073Z,96280.03
2023-04-16T23:24:38.119Z,96273.66
2023-04-16T23:27:06.124Z,96276.31
2023-04-16T23:29:36.046Z,96283.50
2023-04-16T23:32:04.153Z,96285.13
2023-04-16T23:34:32.161Z,96282.44
2023-04-16T23:37:00.270Z,96280.59
2023-04-16T23:39:28.372Z,96286.16
2023-04-16T23:41:57.197Z,96287.78
2023-04-16T23:44:25.340Z,96285.13
2023-04-16T23:46:54.855Z,96282.34
2023-04-16T23:49:22.975Z,96282.09
2023-04-16T23:51:51.023Z,96273.09
2023-04-16T23:54:19.113Z,96275.75
2023-04-16T23:56:47.504Z,96270.19
2023-04-16T23:59:16.812Z,96273.88
